Time;durP1;ratioP1;P1;durP2;ratioP2;P2;SDS_P1;SDS_P2;PMS_P1;PMS_P2;Temp;Humidity;BMP_temperature;BMP_pressure;BME280_temperature;BME280_humidity;BME280_pressure;Samples;Min_cycle;Max_cycle;Signal;HPM_P1;HPM_P2
2022/07/29 00:00:05;;;;;;;1999.90;999.90;;;;;;;24.20;49.80;95351.66;5029992;28;20041;-65
2022/07/29 00:02:31;;;;;;;1999.90;999.90;;;;;;;23.44;51.18;95311.06;5010792;28;20597;-65
2022/07/29 00:04:57;;;;;;;1999.90;999.90;;;;;;;23.85;50.78;95334.13;5030129;28;20060;-65
2022/07/29 00:07:22;;;;;;;1999.90;999.90;;;;;;;23.68;50.72;95299.53;5028626;28;20041;-64
2022/07/29 00:09:47;;;;;;;1999.90;999.90;;;;;;;23.52;51.76;95299.09;5029925;28;20462;-65
2022/07/29 00:12:13;;;;;;;1999.90;999.90;;;;;;;23.49;52.25;95314.22;5028715;28;20033;-65
2022/07/29 00:14:38;;;;;;;1999.90;999.90;;;;;;;23.54;51.83;95277.75;5029266;28;20044;-64
2022/07/29 00:17:03;;;;;;;1999.90;999.90;;;;;;;23.77;51.99;95318.19;5028742;28;20356;-65
2022/07/29 00:19:29;;;;;;;1999.90;999.90;;;;;;;23.96;51.75;95307.00;5029967;28;20029;-65
2022/07/29 00:21:54;;;;;;;1999.90;999.90;;;;;;;24.16;51.53;95320.19;5028972;28;20083;-65
2022/07/29 00:24:19;;;;;;;1999.90;999.90;;;;;;;23.66;51.40;95263.84;5028673;28;20044;-65
2022/07/29 00:26:45;;;;;;;1999.90;999.90;;;;;;;23.53;51.72;95257.97;5028734;28;20421;-65
2022/07/29 00:29:10;;;;;;;1999.90;999.90;;;;;;;24.19;51.23;95330.31;5029675;28;20466;-65
2022/07/29 00:31:36;;;;;;;1999.90;999.90;;;;;;;23.98;50.73;95293.00;5028782;28;20625;-65
2022/07/29 00:34:02;;;;;;;1999.90;999.90;;;;;;;24.18;50.59;95310.50;5029175;28;20037;-65
2022/07/29 00:36:27;;;;;;;1999.90;999.90;;;;;;;23.93;51.13;95263.50;5009382;28;20151;-65
2022/07/29 00:38:53;;;;;;;1999.90;999.90;;;;;;;24.11;50.05;95286.81;5011162;28;20025;-65
2022/07/29 00:41:18;;;;;;;1999.90;999.90;;;;;;;24.22;50.21;95294.97;5029650;28;20033;-65
2022/07/29 00:43:44;;;;;;;1999.90;999.90;;;;;;;24.20;49.87;95282.94;5028122;28;20026;-65
2022/07/29 00:46:10;;;;;;;1999.90;999.90;;;;;;;24.50;49.43;95317.91;5028459;28;20454;-65
2022/07/29 00:48:35;;;;;;;1999.90;999.90;;;;;;;24.27;48.75;95277.50;5028614;28;20021;-64
2022/07/29 00:51:03;;;;;;;1999.90;999.90;;;;;;;24.41;48.80;95298.50;5011577;28;20021;-64
2022/07/29 00:53:30;;;;;;;1999.90;999.90;;;;;;;24.48;48.88;95310.16;5028530;28;20036;-64
2022/07/29 00:55:56;;;;;;;1999.90;999.90;;;;;;;24.41;48.37;95298.50;5029172;28;20021;-64
2022/07/29 00:58:23;;;;;;;1999.90;999.90;;;;;;;24.27;47.92;95274.78;5028468;28;20026;-65
2022/07/29 01:00:49;;;;;;;1999.90;999.90;;;;;;;24.34;47.95;95272.84;5027824;28;20033;-64
2022/07/29 01:03:14;;;;;;;1999.90;999.90;;;;;;;24.00;47.44;95212.66;5028082;28;20477;-65
2022/07/29 01:05:41;;;;;;;1999.90;999.90;;;;;;;24.42;46.81;95270.16;5028354;28;20482;-64
2022/07/29 01:08:07;;;;;;;1999.90;999.90;;;;;;;24.14;46.94;95233.63;5028465;28;20033;-64
2022/07/29 01:10:37;;;;;;;1999.90;999.90;;;;;;;24.12;46.56;95228.59;5028372;28;20075;-64
2022/07/29 01:13:04;;;;;;;1999.90;999.90;;;;;;;23.98;46.16;95204.13;5029271;28;20024;-64
2022/07/29 01:15:29;;;;;;;1999.90;999.90;;;;;;;24.34;46.36;95247.59;5014316;28;20061;-64
2022/07/29 01:18:07;;;;;;;1999.90;999.90;;;;;;;23.84;45.47;95232.06;5033003;28;20496;-64
2022/07/29 01:20:32;;;;;;;1999.90;999.90;;;;;;;24.25;46.44;95288.75;5031953;28;20033;-64
2022/07/29 01:23:11;;;;;;;1999.90;999.90;;;;;;;24.02;46.59;95269.34;5032128;28;20025;-64
2022/07/29 01:25:54;;;;;;;1999.90;999.90;;;;;;;24.38;47.08;95279.06;5032852;28;20075;-65
2022/07/29 01:28:32;;;;;;;1999.90;999.90;;;;;;;24.43;46.35;95291.50;5032190;28;20366;-64
2022/07/29 01:31:00;;;;;;;1999.90;999.90;;;;;;;24.35;46.31;95271.69;5031509;28;20117;-65
2022/07/29 01:36:45;;;;;;;1999.90;999.90;;;;;;;24.48;45.75;95271.31;4989848;28;20041;-65
2022/07/29 01:39:18;;;;;;;1999.90;999.90;;;;;;;24.25;47.02;95275.16;5027457;28;20445;-67
2022/07/29 01:41:53;;;;;;;1999.90;999.90;;;;;;;24.06;47.43;95246.44;5031736;28;20029;-67
2022/07/29 01:44:22;;;;;;;1999.90;999.90;;;;;;;24.30;47.91;95277.50;5031558;28;20520;-67
2022/07/29 01:46:55;;;;;;;1999.90;999.90;;;;;;;24.36;47.26;95270.53;5031044;28;20059;-67
2022/07/29 01:49:31;;;;;;;1999.90;999.90;;;;;;;24.31;47.81;95272.81;5031865;28;20029;-67
2022/07/29 01:52:05;;;;;;;1999.90;999.90;;;;;;;24.27;47.97;95275.56;5031948;28;20096;-67
2022/07/29 01:54:37;;;;;;;1999.90;999.90;;;;;;;24.04;47.52;95229.72;5012359;28;20089;-65
2022/07/29 01:57:08;;;;;;;1999.90;999.90;;;;;;;24.09;47.48;95226.63;5012641;28;20627;-65
2022/07/29 01:59:34;;;;;;;1999.90;999.90;;;;;;;24.23;47.41;95258.47;5014817;28;20018;-64
2022/07/29 02:02:01;;;;;;;1999.90;999.90;;;;;;;24.25;47.80;95258.06;5013962;28;20493;-64
2022/07/29 02:04:29;;;;;;;1999.90;999.90;;;;;;;23.81;47.85;95202.97;5031673;28;20589;-64
2022/07/29 02:07:00;;;;;;;1999.90;999.90;;;;;;;23.78;47.82;95192.09;5031405;28;20029;-64
2022/07/29 02:09:25;;;;;;;1999.90;999.90;;;;;;;23.78;48.10;95214.59;5014275;28;20032;-64
2022/07/29 02:11:55;;;;;;;1999.90;999.90;;;;;;;23.80;48.26;95209.56;5013605;28;20038;-65
2022/07/29 02:14:22;;;;;;;1999.90;999.90;;;;;;;24.18;47.99;95264.31;5031459;28;20030;-64
2022/07/29 02:16:50;;;;;;;1999.90;999.90;;;;;;;23.94;47.80;95235.94;5030984;28;20021;-64
2022/07/29 02:19:18;;;;;;;1999.90;999.90;;;;;;;24.10;48.12;95260.00;5031858;28;20025;-64
2022/07/29 02:21:45;;;;;;;1999.90;999.90;;;;;;;24.09;48.55;95255.75;5012832;28;20104;-64
2022/07/29 02:24:12;;;;;;;1999.90;999.90;;;;;;;24.04;47.99;95253.41;5030193;28;20079;-64
2022/07/29 02:26:39;;;;;;;1999.90;999.90;;;;;;;23.67;48.67;95197.50;5030102;28;20053;-64
2022/07/29 02:29:06;;;;;;;1999.90;999.90;;;;;;;23.62;48.74;95195.16;5030261;28;20029;-64
2022/07/29 02:31:34;;;;;;;1999.90;999.90;;;;;;;23.45;48.64;95179.63;5030324;28;20060;-64
2022/07/29 02:34:03;;;;;;;1999.90;999.90;;;;;;;23.59;48.64;95223.84;5030487;28;20515;-64
2022/07/29 02:36:30;;;;;;;1999.90;999.90;;;;;;;23.33;49.08;95192.38;5031361;28;20030;-65
2022/07/29 02:39:00;;;;;;;1999.90;999.90;;;;;;;23.57;49.20;95247.91;5030795;28;20394;-64
2022/07/29 02:41:33;;;;;;;1999.90;999.90;;;;;;;23.49;49.61;95240.91;5013949;28;20026;-64
2022/07/29 02:44:10;;;;;;;1999.90;999.90;;;;;;;23.34;49.49;95223.81;5030473;28;20567;-64
2022/07/29 02:46:37;;;;;;;1999.90;999.90;;;;;;;23.37;50.10;95235.06;5030322;28;20478;-64
2022/07/29 02:49:20;;;;;;;1999.90;999.90;;;;;;;23.22;49.91;95232.28;5030484;28;20057;-64
2022/07/29 02:51:53;;;;;;;1999.90;999.90;;;;;;;22.33;49.81;95106.38;5031446;28;20041;-64
2022/07/29 02:54:37;;;;;;;1999.90;999.90;;;;;;;22.79;50.70;95194.13;5030086;28;20478;-64
2022/07/29 02:57:10;;;;;;;1999.90;999.90;;;;;;;22.73;50.25;95192.16;5031048;28;20152;-64
2022/07/29 02:59:38;;;;;;;1999.90;999.90;;;;;;;22.89;50.73;95227.13;5031191;28;20025;-64
2022/07/29 03:02:05;;;;;;;1999.90;999.90;;;;;;;22.49;51.21;95182.75;5029950;28;20022;-67
2022/07/29 03:04:32;;;;;;;1999.90;999.90;;;;;;;22.40;51.30;95185.00;5030102;28;20029;-64
2022/07/29 03:07:00;;;;;;;1999.90;999.90;;;;;;;22.40;52.42;95203.97;5030929;28;20677;-64
2022/07/29 03:09:27;;;;;;;1999.90;999.90;;;;;;;22.01;51.96;95148.38;5030257;28;20026;-64
2022/07/29 03:11:54;;;;;;;1999.90;999.90;;;;;;;21.75;52.40;95124.97;5030799;28;20462;-64
2022/07/29 03:14:20;;;;;;;1999.90;999.90;;;;;;;21.77;52.50;95138.91;5029789;28;20080;-67
2022/07/29 03:16:46;;;;;;;1999.90;999.90;;;;;;;22.12;52.79;95199.94;5030054;28;20030;-64
2022/07/29 03:19:12;;;;;;;1999.90;999.90;;;;;;;22.19;53.25;95224.34;5013003;28;20454;-64
2022/07/29 03:21:38;;;;;;;1999.90;999.90;;;;;;;22.16;53.36;95213.47;5030234;28;20044;-67
2022/07/29 03:24:04;;;;;;;1999.90;999.90;;;;;;;22.20;53.14;95217.78;5011874;28;20033;-67
2022/07/29 03:26:29;;;;;;;1999.90;999.90;;;;;;;21.87;53.03;95169.16;5029205;28;20057;-68
2022/07/29 03:28:54;;;;;;;1999.90;999.90;;;;;;;21.91;53.27;95200.53;5030472;28;20112;-66
2022/07/29 03:31:20;;;;;;;1999.90;999.90;;;;;;;21.89;53.54;95204.75;5028796;28;20490;-66
2022/07/29 03:33:45;;;;;;;1999.90;999.90;;;;;;;21.70;53.79;95200.31;5029947;28;20120;-66
2022/07/29 03:36:10;;;;;;;1999.90;999.90;;;;;;;21.93;53.98;95243.47;5011212;28;20499;-66
2022/07/29 03:38:37;;;;;;;1999.90;999.90;;;;;;;21.71;53.97;95221.63;5030234;28;20084;-65
2022/07/29 03:41:09;;;;;;;1999.90;999.90;;;;;;;21.74;54.68;95245.22;5028856;28;20040;-67
2022/07/29 03:43:37;;;;;;;1999.90;999.90;;;;;;;21.58;54.42;95212.22;5029430;28;20026;-66
2022/07/29 03:46:06;;;;;;;1999.90;999.90;;;;;;;21.78;54.62;95234.44;5011225;28;20474;-66
2022/07/29 03:48:35;;;;;;;1999.90;999.90;;;;;;;21.51;54.83;95204.03;5011478;28;20033;-66
2022/07/29 03:51:00;;;;;;;1999.90;999.90;;;;;;;21.47;55.18;95193.16;5030328;28;20061;-66
2022/07/29 03:53:26;;;;;;;1999.90;999.90;;;;;;;21.61;54.84;95210.69;5028997;28;20470;-67
2022/07/29 03:55:54;;;;;;;1999.90;999.90;;;;;;;21.80;54.99;95245.66;5026134;28;20095;-66
2022/07/29 03:58:21;;;;;;;1999.90;999.90;;;;;;;21.45;54.66;95187.38;5029542;28;20478;-67
2022/07/29 04:00:47;;;;;;;1999.90;999.90;;;;;;;21.48;55.01;95186.59;5015560;28;20079;-66
2022/07/29 04:03:13;;;;;;;1999.90;999.90;;;;;;;21.76;54.93;95226.69;5029454;28;20025;-66
2022/07/29 04:05:38;;;;;;;1999.90;999.90;;;;;;;21.53;54.87;95199.03;5011365;28;20029;-64
2022/07/29 04:08:04;;;;;;;1999.90;999.90;;;;;;;;;;5029118;28;20022;-64
2022/07/29 04:10:29;;;;;;;1999.90;999.90;;;;;;;21.79;55.14;95241.41;5011901;28;20497;-66
2022/07/29 04:12:55;;;;;;;1999.90;999.90;;;;;;;21.59;55.06;95202.94;5011096;28;20033;-66
2022/07/29 04:15:20;;;;;;;1999.90;999.90;;;;;;;21.98;54.69;95243.13;5028555;28;20030;-66
2022/07/29 04:17:45;;;;;;;1999.90;999.90;;;;;;;21.99;54.23;95214.88;5028200;28;20026;-65
2022/07/29 04:20:14;;;;;;;1999.90;999.90;;;;;;;22.18;53.53;95213.91;5029132;28;20060;-66
2022/07/29 04:22:42;;;;;;;1999.90;999.90;;;;;;;22.26;53.44;95199.22;5018504;28;20083;-64
2022/07/29 04:25:08;;;;;;;1999.90;999.90;;;;;;;22.73;52.24;95249.88;5029757;28;20414;-61
2022/07/29 04:27:34;;;;;;;1999.90;999.90;;;;;;;22.53;52.06;95170.00;5010259;28;20030;-65
2022/07/29 04:29:59;;;;;;;1999.90;999.90;;;;;;;23.45;51.23;95244.78;5029664;28;20021;-65
2022/07/29 04:32:25;;;;;;;1999.90;999.90;;;;;;;23.81;49.79;95261.94;5026567;28;20030;-67
2022/07/29 04:34:51;;;;;;;1999.90;999.90;;;;;;;23.85;49.16;95230.91;5029731;28;20030;-65
2022/07/29 04:37:16;;;;;;;1999.90;999.90;;;;;;;24.04;48.79;95220.81;5028401;28;20049;-65
2022/07/29 04:39:42;;;;;;;1999.90;999.90;;;;;;;24.04;48.04;95212.66;5007619;28;20029;-65
2022/07/29 04:42:07;;;;;;;1999.90;999.90;;;;;;;23.72;47.68;95191.69;5009830;28;20037;-66
2022/07/29 04:44:32;;;;;;;1999.90;999.90;;;;;;;24.13;47.95;95219.25;5011802;28;20038;-65
2022/07/29 04:46:58;;;;;;;1999.90;999.90;;;;;;;24.16;46.65;95201.41;5029703;28;20470;-65
2022/07/29 04:49:23;;;;;;;1999.90;999.90;;;;;;;24.40;47.05;95272.47;5032426;28;20037;-67
2022/07/29 04:51:49;;;;;;;1999.90;999.90;;;;;;;24.55;46.86;95263.91;5033833;28;20100;-67
2022/07/29 04:54:14;;;;;;;1999.90;999.90;;;;;;;24.02;45.63;95187.81;5032616;28;20506;-67
2022/07/29 04:56:39;;;;;;;1999.90;999.90;;;;;;;24.61;46.53;95262.34;5015644;28;20029;-67
2022/07/29 04:59:05;;;;;;;1999.90;999.90;;;;;;;24.21;46.04;95209.19;5032889;28;20478;-67
2022/07/29 05:01:30;;;;;;;1999.90;999.90;;;;;;;24.40;45.90;95220.81;5032300;28;20029;-67
2022/07/29 05:03:55;;;;;;;1999.90;999.90;;;;;;;23.98;47.33;95228.56;5032179;28;20037;-65
2022/07/29 05:06:21;;;;;;;1999.90;999.90;;;;;;;24.08;46.98;95262.34;5019799;28;20013;-67
2022/07/29 05:08:46;;;;;;;1999.90;999.90;;;;;;;24.08;47.83;95275.94;5033386;28;20092;-66
2022/07/29 05:11:11;;;;;;;1999.90;999.90;;;;;;;23.58;47.86;95189.72;5032773;28;20021;-66
2022/07/29 05:13:37;;;;;;;1999.90;999.90;;;;;;;23.77;47.32;95215.00;5032750;28;20462;-66
2022/07/29 05:16:02;;;;;;;1999.90;999.90;;;;;;;23.93;48.02;95236.34;5030777;28;20025;-66
2022/07/29 05:18:28;;;;;;;1999.90;999.90;;;;;;;24.18;47.84;95286.03;5032495;28;20031;-65
2022/07/29 05:20:53;;;;;;;1999.90;999.90;;;;;;;24.24;47.77;95289.16;5031894;28;20117;-65
2022/07/29 05:23:18;;;;;;;1999.90;999.90;;;;;;;24.21;47.79;95276.31;5032864;28;20021;-65
2022/07/29 05:25:44;;;;;;;1999.90;999.90;;;;;;;24.00;47.49;95230.91;5032290;28;20099;-65
2022/07/29 05:28:09;;;;;;;1999.90;999.90;;;;;;;24.40;47.20;95270.53;5033040;28;20116;-65
2022/07/29 05:30:35;;;;;;;1999.90;999.90;;;;;;;24.41;47.81;95268.59;5031136;28;20502;-64
2022/07/29 05:33:00;;;;;;;1999.90;999.90;;;;;;;24.53;47.41;95252.66;5031097;28;20034;-64
2022/07/29 05:35:26;;;;;;;1999.90;999.90;;;;;;;24.75;46.89;95266.97;5032040;28;20430;-64
2022/07/29 05:37:51;;;;;;;1999.90;999.90;;;;;;;25.09;46.54;95297.25;5031928;28;20422;-64
2022/07/29 05:40:17;;;;;;;1999.90;999.90;;;;;;;24.79;46.02;95229.66;5032741;28;20029;-64
2022/07/29 05:42:42;;;;;;;1999.90;999.90;;;;;;;25.28;45.59;95295.22;5032309;28;20044;-64
2022/07/29 05:45:08;;;;;;;1999.90;999.90;;;;;;;25.38;45.44;95311.53;5031004;28;20112;-64
2022/07/29 05:47:33;;;;;;;1999.90;999.90;;;;;;;25.32;44.68;95285.88;5032361;28;20021;-64
2022/07/29 05:49:59;;;;;;;1999.90;999.90;;;;;;;25.27;45.08;95290.97;5031499;28;20385;-64
2022/07/29 05:52:24;;;;;;;1999.90;999.90;;;;;;;25.21;44.93;95276.22;5031929;28;20045;-65
2022/07/29 05:54:49;;;;;;;1999.90;999.90;;;;;;;25.40;44.59;95302.97;5030990;28;20029;-65
2022/07/29 05:57:20;;;;;;;1999.90;999.90;;;;;;;24.75;45.02;95261.53;5033154;28;20022;-65
2022/07/29 05:59:46;;;;;;;1999.90;999.90;;;;;;;24.88;45.31;95268.13;5030725;28;20029;-64
2022/07/29 06:02:11;;;;;;;1999.90;999.90;;;;;;;25.11;45.02;95294.13;5031172;28;20025;-64
2022/07/29 06:04:37;;;;;;;1999.90;999.90;;;;;;;25.10;44.27;95278.97;5029896;28;20036;-66
2022/07/29 06:07:02;;;;;;;1999.90;999.90;;;;;;;24.92;44.62;95264.59;5029239;28;20038;-65
2022/07/29 06:09:29;;;;;;;1999.90;999.90;;;;;;;25.21;44.71;95300.72;5031268;28;20061;-64
2022/07/29 06:11:54;;;;;;;1999.90;999.90;;;;;;;25.00;44.78;95274.31;5031919;28;20509;-67
2022/07/29 06:14:20;;;;;;;1999.90;999.90;;;;;;;25.06;44.66;95289.06;5030857;28;20124;-64
2022/07/29 06:16:45;;;;;;;1999.90;999.90;;;;;;;25.03;44.80;95277.03;5013303;28;20021;-64
2022/07/29 06:19:10;;;;;;;1999.90;999.90;;;;;;;25.12;44.87;95271.19;5030890;28;20025;-65
2022/07/29 06:21:35;;;;;;;1999.90;999.90;;;;;;;25.37;44.75;95280.03;5032063;28;20455;-66
2022/07/29 06:24:01;;;;;;;1999.90;999.90;;;;;;;25.64;44.55;95296.66;5030344;28;20404;-66
2022/07/29 06:26:27;;;;;;;1999.90;999.90;;;;;;;25.79;43.86;95291.13;5030899;28;20029;-66
2022/07/29 06:28:52;;;;;;;1999.90;999.90;;;;;;;25.74;43.74;95273.22;5031892;28;20037;-66
2022/07/29 06:31:17;;;;;;;1999.90;999.90;;;;;;;26.28;43.34;95311.06;5013356;28;20057;-65
2022/07/29 06:33:43;;;;;;;1999.90;999.90;;;;;;;26.13;42.98;95296.75;5029936;28;20034;-64
2022/07/29 06:36:08;;;;;;;1999.90;999.90;;;;;;;26.16;42.70;95288.56;5013693;28;20630;-64
2022/07/29 06:38:34;;;;;;;1999.90;999.90;;;;;;;26.18;42.85;95290.88;5030396;28;20116;-64
2022/07/29 06:41:00;;;;;;;1999.90;999.90;;;;;;;26.33;42.93;95297.00;5031854;28;20030;-64
2022/07/29 06:43:38;;;;;;;1999.90;999.90;;;;;;;26.39;43.26;95307.06;5030641;28;20072;-65
2022/07/29 06:46:07;;;;;;;1999.90;999.90;;;;;;;26.70;42.40;95318.91;5013119;28;20056;-64
2022/07/29 06:48:33;;;;;;;1999.90;999.90;;;;;;;26.62;42.07;95319.41;5014049;28;20057;-65
2022/07/29 06:50:59;;;;;;;1999.90;999.90;;;;;;;26.77;42.14;95322.75;5031850;28;20037;-65
2022/07/29 06:53:26;;;;;;;1999.90;999.90;;;;;;;26.95;41.67;95320.63;5030987;28;20036;-65
2022/07/29 06:55:51;;;;;;;1999.90;999.90;;;;;;;27.18;41.72;95326.28;5030613;28;20053;-65
2022/07/29 06:58:20;;;;;;;1999.90;999.90;;;;;;;27.14;41.82;95303.69;5011559;28;20068;-66
2022/07/29 07:00:46;;;;;;;1999.90;999.90;;;;;;;26.27;41.29;95326.66;5008098;28;20117;-68
2022/07/29 07:03:11;;;;;;;1999.90;999.90;;;;;;;24.79;44.79;95310.50;5024071;28;20040;-67
2022/07/29 07:05:37;;;;;;;1999.90;999.90;;;;;;;25.61;43.51;95318.44;5026799;28;20037;-67
2022/07/29 07:08:02;;;;;;;1999.90;999.90;;;;;;;25.73;42.41;95344.47;5028385;28;20033;-67
2022/07/29 07:10:29;;;;;;;1999.90;999.90;;;;;;;25.62;42.33;95290.03;5030068;28;20036;-67
2022/07/29 07:12:54;;;;;;;1999.90;999.90;;;;;;;25.94;42.14;95281.69;5027027;28;20367;-66
2022/07/29 07:15:21;;;;;;;1999.90;999.90;;;;;;;25.33;42.72;95311.94;5025897;28;20034;-67
2022/07/29 07:17:50;;;;;;;1999.90;999.90;;;;;;;24.99;43.41;95278.22;5028158;28;20024;-66
2022/07/29 07:20:16;;;;;;;1999.90;999.90;;;;;;;26.30;42.20;95333.25;5013230;28;20108;-66
2022/07/29 07:22:42;;;;;;;1999.90;999.90;;;;;;;26.75;41.48;95334.06;5030065;28;20033;-66
2022/07/29 07:25:08;;;;;;;1999.90;999.90;;;;;;;25.83;41.04;95289.16;5030051;28;20037;-66
2022/07/29 07:27:34;;;;;;;1999.90;999.90;;;;;;;25.12;42.04;95318.22;5030427;28;20029;-66
2022/07/29 07:30:00;;;;;;;1999.90;999.90;;;;;;;25.43;41.92;95280.38;5030151;28;20091;-66
2022/07/29 07:32:25;;;;;;;1999.90;999.90;;;;;;;25.20;42.08;95229.16;5011680;28;20025;-66
2022/07/29 07:34:51;;;;;;;1999.90;999.90;;;;;;;25.80;42.27;95306.31;5028189;28;20037;-68
2022/07/29 07:37:17;;;;;;;1999.90;999.90;;;;;;;26.14;41.84;95312.69;5030497;28;20030;-65
2022/07/29 07:39:42;;;;;;;1999.90;999.90;;;;;;;25.82;41.50;95320.31;5029464;28;20024;-66
2022/07/29 07:42:11;;;;;;;1999.90;999.90;;;;;;;26.19;40.69;95325.13;5025770;28;20060;-67
2022/07/29 07:44:36;;;;;;;1999.90;999.90;;;;;;;25.74;41.27;95292.28;5010220;28;20036;-69
2022/07/29 07:47:01;;;;;;;1999.90;999.90;;;;;;;25.59;41.65;95326.22;5029292;28;20033;-67
2022/07/29 07:49:29;;;;;;;1999.90;999.90;;;;;;;26.13;41.23;95313.88;5028733;28;20051;-66
2022/07/29 07:51:55;;;;;;;1999.90;999.90;;;;;;;26.88;40.05;95304.34;5011966;28;20424;-66
2022/07/29 07:54:20;;;;;;;1999.90;999.90;;;;;;;27.12;39.26;95297.84;5028529;28;20139;-66
2022/07/29 07:56:48;;;;;;;1999.90;999.90;;;;;;;26.21;40.12;95333.72;5029592;28;20018;-67
2022/07/29 07:59:14;;;;;;;1999.90;999.90;;;;;;;25.67;41.31;95328.53;5029297;28;20021;-67
2022/07/29 08:01:39;;;;;;;1999.90;999.90;;;;;;;26.06;40.18;95294.09;5028023;28;20079;-67
2022/07/29 08:04:05;;;;;;;1999.90;999.90;;;;;;;26.00;40.04;95331.91;5028189;28;20437;-67
2022/07/29 08:06:31;;;;;;;1999.90;999.90;;;;;;;26.79;39.68;95334.06;5028270;28;20029;-68
2022/07/29 08:08:56;;;;;;;1999.90;999.90;;;;;;;26.44;40.16;95320.31;5012101;28;20083;-69
2022/07/29 08:11:22;;;;;;;1999.90;999.90;;;;;;;26.55;39.94;95314.75;5028889;28;20068;-68
2022/07/29 08:13:47;;;;;;;1999.90;999.90;;;;;;;26.55;39.76;95311.25;4997656;28;20501;-67
2022/07/29 08:16:14;;;;;;;1999.90;999.90;;;;;;;26.39;40.26;95301.63;5019063;28;20493;-66
2022/07/29 08:18:41;;;;;;;1999.90;999.90;;;;;;;26.86;39.25;95328.53;5029636;28;20028;-67
2022/07/29 08:21:07;;;;;;;1999.90;999.90;;;;;;;26.26;40.44;95303.28;5028265;28;20504;-67
2022/07/29 08:23:39;;;;;;;1999.90;999.90;;;;;;;27.13;38.89;95282.28;5028932;28;20038;-67
2022/07/29 08:26:10;;;;;;;1999.90;999.90;;;;;;;27.79;37.61;95311.91;5028701;28;20080;-67
2022/07/29 08:28:36;;;;;;;1999.90;999.90;;;;;;;27.58;36.84;95148.22;5029581;28;20025;-68
2022/07/29 08:31:02;;;;;;;1999.90;999.90;;;;;;;26.50;37.70;95165.16;5028783;28;20056;-67
2022/07/29 08:33:27;;;;;;;1999.90;999.90;;;;;;;25.92;39.06;95167.63;5027645;28;20075;-67
2022/07/29 08:35:55;;;;;;;1999.90;999.90;;;;;;;25.12;39.26;95124.97;5026746;28;20083;-66
2022/07/29 08:38:21;;;;;;;1999.90;999.90;;;;;;;26.73;38.58;95254.59;5011994;28;20033;-66
2022/07/29 08:40:46;;;;;;;1999.90;999.90;;;;;;;27.96;38.04;95318.31;5028342;28;20071;-66
2022/07/29 08:43:12;;;;;;;1999.90;999.90;;;;;;;28.32;36.99;95306.88;5011377;28;20030;-67
2022/07/29 08:45:45;;;;;;;1999.90;999.90;;;;;;;29.97;35.34;95319.88;5028119;28;20021;-67
2022/07/29 08:48:15;;;;;;;1999.90;999.90;;;;;;;30.85;32.77;95315.50;5029807;28;20032;-67
2022/07/29 08:50:42;;;;;;;1999.90;999.90;;;;;;;30.63;32.93;95317.22;5028005;28;20061;-68
2022/07/29 08:53:11;;;;;;;1999.90;999.90;;;;;;;29.82;32.93;95284.97;5028205;28;20087;-68
2022/07/29 08:55:45;;;;;;;1999.90;999.90;;;;;;;28.58;35.70;95338.91;5029181;28;20021;-68
2022/07/29 08:58:12;;;;;;;1999.90;999.90;;;;;;;28.45;36.54;95346.16;5029506;28;20083;-68
2022/07/29 09:00:42;;;;;;;1999.90;999.90;;;;;;;27.17;38.71;95334.88;5029229;28;20029;-68
2022/07/29 09:03:10;;;;;;;1999.90;999.90;;;;;;;27.47;38.31;95361.47;5029006;28;20041;-68
2022/07/29 09:05:36;;;;;;;1999.90;999.90;;;;;;;28.60;36.73;95344.72;5026689;28;20057;-67
2022/07/29 09:08:04;;;;;;;1999.90;999.90;;;;;;;30.06;34.61;95302.84;5027353;28;20036;-67
2022/07/29 09:10:31;;;;;;;1999.90;999.90;;;;;;;28.97;36.11;95332.81;5027498;28;20549;-67
2022/07/29 09:12:57;;;;;;;1999.90;999.90;;;;;;;27.40;36.17;95080.97;5026941;28;20022;-68
2022/07/29 09:15:23;;;;;;;1999.90;999.90;;;;;;;29.21;36.36;95351.94;5028343;28;20620;-68
2022/07/29 09:17:52;;;;;;;1999.90;999.90;;;;;;;29.93;34.18;95204.00;5028451;28;20022;-68
2022/07/29 09:20:20;;;;;;;1999.90;999.90;;;;;;;31.21;31.67;95342.03;5027693;28;20509;-68
2022/07/29 09:22:52;;;;;;;1999.90;999.90;;;;;;;31.38;32.03;95315.28;5024142;28;20895;-67
2022/07/29 09:25:39;;;;;;;1999.90;999.90;;;;;;;28.32;34.85;95140.00;5022593;28;20026;-67
2022/07/29 09:28:18;;;;;;;1999.90;999.90;;;;;;;28.75;35.60;95304.22;5027357;28;20091;-67
2022/07/29 09:30:50;;;;;;;1999.90;999.90;;;;;;;28.75;35.52;95276.84;5021204;28;20018;-66
2022/07/29 09:33:16;;;;;;;1999.90;999.90;;;;;;;27.16;36.65;95112.16;5016000;28;20036;-68
2022/07/29 09:35:41;;;;;;;1999.90;999.90;;;;;;;26.56;37.41;95089.13;5029587;28;20029;-66
2022/07/29 09:38:14;;;;;;;1999.90;999.90;;;;;;;27.78;37.09;95178.38;5029482;28;20030;-67
2022/07/29 09:40:55;;;;;;;1999.90;999.90;;;;;;;26.13;39.54;95179.53;5031025;28;20032;-67
2022/07/29 09:43:20;;;;;;;1999.90;999.90;;;;;;;28.98;37.12;95345.31;5012600;28;20030;-68
2022/07/29 09:45:47;;;;;;;1999.90;999.90;;;;;;;27.26;36.24;95113.97;5018373;28;20398;-66
2022/07/29 09:48:17;;;;;;;1999.90;999.90;;;;;;;27.89;37.23;95211.78;5032527;28;20025;-66
2022/07/29 09:50:44;;;;;;;1999.90;999.90;;;;;;;27.51;36.51;95164.72;5030833;28;20549;-66
2022/07/29 09:53:10;;;;;;;1999.90;999.90;;;;;;;28.14;37.32;95301.66;5030546;28;20112;-66
2022/07/29 09:56:02;;;;;;;1999.90;999.90;;;;;;;27.99;37.83;95342.88;5011771;28;20124;-67
2022/07/29 09:58:28;;;;;;;1999.90;999.90;;;;;;;25.77;40.58;95149.09;5027211;28;20041;-66
2022/07/29 10:00:56;;;;;;;1999.90;999.90;;;;;;;26.51;38.11;95133.22;5029982;28;20033;-68
2022/07/29 10:03:22;;;;;;;1999.90;999.90;;;;;;;27.20;39.30;95255.66;5020582;28;20057;-67
2022/07/29 10:06:13;;;;;;;1999.90;999.90;;;;;;;26.95;38.29;95178.69;5030827;28;20116;-68
2022/07/29 10:08:38;;;;;;;1999.90;999.90;;;;;;;29.07;37.48;95335.75;5020610;28;20425;-67
2022/07/29 10:11:16;;;;;;;1999.90;999.90;;;;;;;28.61;36.99;95266.13;5028593;28;20056;-67
2022/07/29 10:13:43;;;;;;;1999.90;999.90;;;;;;;29.07;36.41;95254.34;5026039;28;20040;-70
2022/07/29 10:16:10;;;;;;;1999.90;999.90;;;;;;;30.59;34.27;95305.53;5011068;28;20042;-68
2022/07/29 10:18:38;;;;;;;1999.90;999.90;;;;;;;31.08;33.24;95234.84;5031131;28;20100;-69
2022/07/29 10:21:04;;;;;;;1999.90;999.90;;;;;;;32.14;32.70;95317.44;5031201;28;20037;-69
2022/07/29 10:23:30;;;;;;;1999.90;999.90;;;;;;;32.50;31.49;95317.13;5020165;28;20035;-67
2022/07/29 10:25:56;;;;;;;1999.90;999.90;;;;;;;31.53;32.45;95336.47;5031215;28;20036;-69
2022/07/29 10:28:21;;;;;;;1999.90;999.90;;;;;;;30.95;34.91;95269.72;5031096;28;20029;-68
2022/07/29 10:30:50;;;;;;;1999.90;999.90;;;;;;;32.05;33.95;95320.88;5031027;28;20083;-72
2022/07/29 10:33:37;;;;;;;1999.90;999.90;;;;;;;32.15;32.44;95332.75;5025352;28;20633;-71
2022/07/29 10:36:32;;;;;;;1999.90;999.90;;;;;;;32.30;32.58;95337.38;5030239;28;20117;-69
2022/07/29 10:39:26;;;;;;;1999.90;999.90;;;;;;;30.23;35.16;95328.34;4996980;28;20033;-70
2022/07/29 10:42:09;;;;;;;1999.90;999.90;;;;;;;31.10;34.46;95328.59;5012538;28;20022;-68
2022/07/29 10:44:39;;;;;;;1999.90;999.90;;;;;;;29.41;37.00;95328.06;5024980;28;20060;-69
2022/07/29 10:47:04;;;;;;;1999.90;999.90;;;;;;;30.55;35.83;95322.09;5029584;28;20450;-70
2022/07/29 10:49:30;;;;;;;1999.90;999.90;;;;;;;30.20;34.23;95233.97;5032156;28;20021;-70
2022/07/29 10:52:00;;;;;;;1999.90;999.90;;;;;;;31.63;33.30;95320.09;5028575;28;20025;-66
2022/07/29 10:54:47;;;;;;;1999.90;999.90;;;;;;;30.46;34.44;95322.72;5030258;28;20026;-70
2022/07/29 10:57:12;;;;;;;1999.90;999.90;;;;;;;30.01;35.85;95323.31;5031855;28;20421;-69
2022/07/29 10:59:38;;;;;;;1999.90;999.90;;;;;;;30.34;35.54;95282.22;5032425;28;20021;-69